Time;durP1;ratioP1;P1;durP2;ratioP2;P2;SDS_P1;SDS_P2;PMS_P1;PMS_P2;Temp;Humidity;BMP_temperature;BMP_pressure;BME280_temperature;BME280_humidity;BME280_pressure;Samples;Min_cycle;Max_cycle;Signal;HPM_P1;HPM_P2
2022/05/29 00:00:04;;;;;;;6.03;2.50;;;;;;;11.89;69.33;100430.34;1769920;79;21537;-87
2022/05/29 00:02:33;;;;;;;5.53;2.35;;;;;;;11.87;69.39;100432.95;1767654;80;21047;-88
2022/05/29 00:04:59;;;;;;;7.50;2.65;;;;;;;11.85;69.43;100431.17;1769624;80;21673;-87
2022/05/29 00:07:26;;;;;;;7.78;2.90;;;;;;;11.83;69.55;100432.91;1758976;80;21049;-87
2022/05/29 00:09:53;;;;;;;9.50;2.98;;;;;;;11.86;69.70;100434.25;1769804;80;21035;-87
2022/05/29 00:12:21;;;;;;;10.05;2.67;;;;;;;11.85;69.65;100431.17;1772103;80;21043;-88
2022/05/29 00:14:48;;;;;;;9.50;2.72;;;;;;;11.81;69.68;100421.45;1739614;80;21035;-87
2022/05/29 00:17:16;;;;;;;4.87;2.30;;;;;;;11.79;69.73;100428.02;1760290;80;21703;-88
2022/05/29 00:19:43;;;;;;;7.72;2.50;;;;;;;11.78;69.77;100420.08;1745639;80;21591;-88
2022/05/29 00:22:13;;;;;;;7.30;2.50;;;;;;;11.75;69.81;100419.61;1758723;80;21060;-87
2022/05/29 00:24:39;;;;;;;4.08;2.10;;;;;;;11.71;69.85;100415.56;1766985;80;21083;-86
2022/05/29 00:27:07;;;;;;;6.53;2.27;;;;;;;11.66;69.87;100422.11;1766685;80;21051;-88
2022/05/29 00:29:35;;;;;;;8.58;2.47;;;;;;;11.59;69.93;100421.55;1791016;79;22481;-86
2022/05/29 00:32:04;;;;;;;8.63;2.85;;;;;;;11.56;70.06;100425.03;1749918;79;21537;-86
2022/05/29 00:34:31;;;;;;;7.30;2.47;;;;;;;11.55;70.25;100419.30;1759102;80;21098;-87
2022/05/29 00:36:58;;;;;;;8.33;2.37;;;;;;;11.55;70.31;100421.05;1758844;80;21059;-87
2022/05/29 00:39:25;;;;;;;6.28;2.42;;;;;;;11.56;70.40;100423.72;1759205;80;21569;-87
2022/05/29 00:41:54;;;;;;;6.55;2.50;;;;;;;11.58;70.48;100418.04;1758868;80;22602;-88
2022/05/29 00:44:27;;;;;;;8.18;3.05;;;;;;;11.62;70.58;100419.85;1762627;80;21041;-87
2022/05/29 00:46:57;;;;;;;4.55;2.50;;;;;;;11.65;70.57;100420.31;1749842;80;21070;-88
2022/05/29 00:49:32;;;;;;;7.20;2.30;;;;;;;11.66;70.62;100415.08;1766199;80;21668;-86
2022/05/29 00:52:18;;;;;;;5.55;2.65;;;;;;;11.69;70.61;100415.54;1782136;79;21054;-87
2022/05/29 00:55:15;;;;;;;6.62;2.25;;;;;;;11.72;70.68;100420.88;1774812;80;21845;-89
2022/05/29 00:57:54;;;;;;;5.90;2.22;;;;;;;11.75;70.65;100424.88;1812596;78;21054;-89
2022/05/29 01:00:25;;;;;;;6.65;2.33;;;;;;;11.77;70.68;100419.20;1753499;80;21035;-88
2022/05/29 01:02:55;;;;;;;7.70;2.60;;;;;;;11.77;70.71;100421.84;1759747;78;21090;-88
2022/05/29 01:05:23;;;;;;;6.67;2.35;;;;;;;11.79;70.75;100421.42;1781276;80;21539;-90
2022/05/29 01:08:04;;;;;;;8.55;2.60;;;;;;;11.81;70.72;100426.73;1808405;78;22674;-88
2022/05/29 01:10:57;;;;;;;10.80;2.50;;;;;;;11.81;70.73;100425.41;1800424;78;21141;-87
2022/05/29 01:13:42;;;;;;;7.40;2.62;;;;;;;11.83;70.78;100422.36;1787109;78;21046;-86
2022/05/29 01:16:36;;;;;;;10.08;2.62;;;;;;;11.85;70.76;100428.53;1796674;79;21003;-86
2022/05/29 01:19:49;;;;;;;5.73;2.17;;;;;;;11.84;70.76;100436.89;1807819;78;21074;-87
2022/05/29 01:22:47;;;;;;;10.80;2.63;;;;;;;11.86;70.83;100433.84;1817343;78;21794;-88
2022/05/29 01:25:21;;;;;;;6.35;2.22;;;;;;;11.91;70.86;100440.52;1807228;78;21038;-86
2022/05/29 01:28:16;;;;;;;4.37;1.90;;;;;;;11.94;70.90;100434.42;1808988;78;21018;-86
2022/05/29 01:30:49;;;;;;;6.25;2.30;;;;;;;11.96;70.90;100436.20;1819028;78;21090;-88
2022/05/29 01:33:38;;;;;;;5.85;2.60;;;;;;;11.98;70.89;100433.16;1799304;77;22340;-87
2022/05/29 01:36:10;;;;;;;5.08;2.50;;;;;;;11.97;70.88;100436.64;1810458;78;21804;-87
2022/05/29 01:38:47;;;;;;;8.13;2.33;;;;;;;11.97;70.89;100443.67;1782809;78;21054;-87
2022/05/29 01:41:24;;;;;;;5.20;2.05;;;;;;;11.95;70.93;100442.77;1801818;78;21050;-87
2022/05/29 01:43:58;;;;;;;5.60;2.30;;;;;;;11.94;71.00;100441.89;1813775;78;21196;-87
2022/05/29 01:46:34;;;;;;;4.10;2.27;;;;;;;11.93;71.09;100447.14;1813482;78;21536;-87
2022/05/29 01:49:27;;;;;;;5.37;2.05;;;;;;;11.90;71.21;100440.08;1796386;78;21769;-87
2022/05/29 01:52:02;;;;;;;4.75;2.55;;;;;;;11.90;71.26;100444.04;1779111;79;21058;-87
2022/05/29 01:54:51;;;;;;;6.03;2.05;;;;;;;11.90;71.34;100446.67;1787549;79;21021;-88
2022/05/29 01:57:24;;;;;;;9.95;2.87;;;;;;;11.91;71.42;100448.44;1771378;79;21110;-89
2022/05/29 01:59:59;;;;;;;6.37;2.40;;;;;;;11.92;71.56;100454.59;1776729;79;21047;-87
2022/05/29 02:02:36;;;;;;;5.00;2.15;;;;;;;11.93;71.65;100455.93;1776205;79;22210;-87
2022/05/29 02:05:09;;;;;;;8.28;2.42;;;;;;;11.96;71.65;100448.52;1777068;79;21031;-87
2022/05/29 02:07:49;;;;;;;7.08;2.20;;;;;;;11.95;71.70;100451.56;1794016;79;21056;-87
2022/05/29 02:10:49;;;;;;;10.05;2.67;;;;;;;11.96;71.71;100451.16;1754363;80;21067;-85
2022/05/29 02:13:30;;;;;;;8.68;2.72;;;;;;;11.96;71.81;100454.67;1758243;80;21067;-87
2022/05/29 02:16:17;;;;;;;7.05;2.45;;;;;;;12.00;72.00;100454.28;1779560;79;22209;-87
2022/05/29 02:18:53;;;;;;;5.75;2.37;;;;;;;12.01;71.97;100456.04;1765202;79;21043;-87
2022/05/29 02:21:46;;;;;;;5.72;2.40;;;;;;;12.00;71.92;100456.92;1763459;80;21067;-86
2022/05/29 02:24:16;;;;;;;6.05;2.22;;;;;;;12.03;72.13;100462.22;1740839;80;21614;-86
2022/05/29 02:26:47;;;;;;;3.58;2.12;;;;;;;11.95;72.07;100443.65;1775929;79;22303;-86
2022/05/29 02:29:15;;;;;;;5.65;2.00;;;;;;;12.04;72.13;100458.73;1761777;80;21731;-87
2022/05/29 02:32:02;;;;;;;7.15;2.45;;;;;;;12.03;72.08;100459.17;1784525;79;21072;-88
2022/05/29 02:34:58;;;;;;;7.37;2.35;;;;;;;11.99;72.12;100453.81;1776555;79;21043;-86
2022/05/29 02:37:51;;;;;;;5.92;2.30;;;;;;;11.96;72.21;100461.70;1788605;79;21055;-86
2022/05/29 02:40:54;;;;;;;6.37;2.57;;;;;;;11.90;72.26;100456.31;1778920;79;21059;-86
2022/05/29 02:43:40;;;;;;;4.83;2.45;;;;;;;11.87;72.34;100463.73;1794307;79;21074;-89
2022/05/29 02:46:31;;;;;;;5.62;2.47;;;;;;;11.84;72.49;100464.58;1788960;79;21062;-87
2022/05/29 02:49:14;;;;;;;5.05;2.50;;;;;;;11.84;72.67;100461.94;1775819;79;21066;-86
2022/05/29 02:51:54;;;;;;;5.37;2.17;;;;;;;11.90;72.79;100462.91;1773530;79;21059;-86
2022/05/29 02:54:28;;;;;;;5.05;2.45;;;;;;;11.91;72.77;100467.34;1794541;79;21044;-85
2022/05/29 02:56:56;;;;;;;7.33;2.70;;;;;;;11.91;72.74;100472.17;1755462;80;22594;-85
2022/05/29 02:59:24;;;;;;;4.90;2.35;;;;;;;11.90;72.71;100469.09;1785408;79;21031;-85
2022/05/29 03:02:15;;;;;;;7.12;2.30;;;;;;;11.93;72.82;100474.39;1791530;79;21055;-86
2022/05/29 03:04:56;;;;;;;7.12;2.35;;;;;;;11.97;72.81;100479.28;1797973;78;21590;-86
2022/05/29 03:07:49;;;;;;;5.20;2.22;;;;;;;11.97;72.79;100478.84;1785407;78;21618;-86
2022/05/29 03:10:31;;;;;;;4.92;2.60;;;;;;;11.97;72.89;100483.24;1819837;78;22556;-86
2022/05/29 03:13:08;;;;;;;5.12;2.20;;;;;;;11.99;72.95;100490.34;1798692;78;21150;-86
2022/05/29 03:16:16;;;;;;;7.55;2.47;;;;;;;11.97;72.83;100493.35;1782012;79;21599;-87
2022/05/29 03:19:25;;;;;;;5.53;2.08;;;;;;;11.98;72.84;100490.31;1789426;79;21012;-86
2022/05/29 03:22:40;;;;;;;5.60;2.05;;;;;;;12.01;72.84;100492.97;1778539;79;21611;-87
2022/05/29 03:25:17;;;;;;;4.83;2.50;;;;;;;12.06;72.83;100499.21;1743920;80;22543;-87
2022/05/29 03:27:48;;;;;;;3.80;1.70;;;;;;;12.09;72.80;100503.63;1731170;82;21069;-87
2022/05/29 03:30:26;;;;;;;5.83;2.20;;;;;;;12.11;72.77;100500.17;1751473;79;21587;-86
2022/05/29 03:32:57;;;;;;;4.78;1.92;;;;;;;12.15;72.81;100505.95;1768651;79;21017;-87
2022/05/29 03:35:28;;;;;;;3.60;2.10;;;;;;;12.19;72.83;100502.48;1805472;78;21629;-88
2022/05/29 03:37:56;;;;;;;3.98;2.00;;;;;;;12.22;72.74;100505.17;1757604;79;21791;-88
2022/05/29 03:40:23;;;;;;;5.28;1.98;;;;;;;12.24;72.76;100503.88;1763233;80;21043;-88
2022/05/29 03:42:50;;;;;;;6.20;2.22;;;;;;;12.27;72.68;100508.30;1769825;79;21062;-88
2022/05/29 03:45:18;;;;;;;4.85;2.10;;;;;;;12.26;72.67;100507.42;1752546;79;21014;-86
2022/05/29 03:47:45;;;;;;;3.42;2.02;;;;;;;12.26;72.69;100508.75;1786157;78;21551;-90
2022/05/29 03:50:14;;;;;;;3.22;1.75;;;;;;;12.31;72.81;100514.08;1784738;79;21719;-89
2022/05/29 03:52:41;;;;;;;4.65;2.05;;;;;;;12.35;72.76;100511.52;1755355;80;21115;-87
2022/05/29 03:55:09;;;;;;;4.87;1.85;;;;;;;12.37;72.71;100511.51;1751426;81;21059;-88
2022/05/29 03:57:36;;;;;;;3.75;1.77;;;;;;;12.41;72.70;100510.27;1751077;80;21180;-88
2022/05/29 04:00:09;;;;;;;4.60;1.82;;;;;;;12.45;72.63;100512.52;1758432;80;21063;-87
2022/05/29 04:02:36;;;;;;;;;;;;;;;12.50;72.68;100509.93;1819966;78;21662;-86
2022/05/29 04:05:04;;;;;;;6.95;1.80;;;;;;;12.55;72.58;100513.52;1812598;78;20865;-87
2022/05/29 04:13:03;;;;;;;6.35;2.22;;;;;;;12.71;72.53;100518.14;1786273;78;21034;-87
2022/05/29 04:15:30;;;;;;;6.37;2.50;;;;;;;12.79;72.35;100519.55;1817507;78;21812;-86
2022/05/29 04:17:57;;;;;;;3.80;2.50;;;;;;;12.84;72.25;100517.87;1797244;78;21041;-86
2022/05/29 04:20:23;;;;;;;7.22;2.40;;;;;;;12.91;72.21;100518.80;1791696;78;21053;-84
2022/05/29 04:22:51;;;;;;;3.33;2.22;;;;;;;12.95;72.13;100524.57;1803282;79;21258;-86
2022/05/29 04:25:18;;;;;;;3.55;2.30;;;;;;;12.99;72.02;100527.28;1792623;78;21070;-86
2022/05/29 04:27:45;;;;;;;5.62;2.15;;;;;;;13.02;71.87;100519.38;1818492;78;21727;-86
2022/05/29 04:30:13;;;;;;;3.30;1.92;;;;;;;13.01;71.87;100508.81;1815430;78;21045;-85
2022/05/29 04:35:25;;;;;;;5.67;2.20;;;;;;;13.28;71.70;100523.19;1790893;78;21597;-84
2022/05/29 04:37:51;;;;;;;4.05;1.87;;;;;;;13.44;71.66;100519.87;1792577;78;21058;-85
2022/05/29 04:40:18;;;;;;;3.00;1.82;;;;;;;13.58;71.43;100518.22;1805093;78;22698;-87
2022/05/29 04:42:45;;;;;;;3.45;1.72;;;;;;;13.71;71.22;100517.02;1817667;78;21038;-87
2022/05/29 04:45:12;;;;;;;2.85;1.80;;;;;;;13.83;71.10;100518.86;1796073;78;21021;-88
2022/05/29 04:47:39;;;;;;;3.92;2.25;;;;;;;13.94;70.87;100522.48;1803778;78;21069;-87
2022/05/29 04:50:07;;;;;;;4.17;2.17;;;;;;;13.99;70.57;100524.73;1770483;79;21046;-89
2022/05/29 04:52:34;;;;;;;6.00;2.10;;;;;;;14.02;70.41;100527.83;1801355;78;22592;-86
2022/05/29 04:55:01;;;;;;;4.75;2.10;;;;;;;14.04;70.25;100529.63;1773086;80;21010;-87
2022/05/29 04:57:28;;;;;;;4.72;2.20;;;;;;;14.09;70.10;100537.59;1758937;80;21083;-86
2022/05/29 04:59:55;;;;;;;4.55;2.08;;;;;;;14.07;69.96;100534.92;1774112;80;21056;-88
2022/05/29 05:02:21;;;;;;;3.17;1.80;;;;;;;14.06;69.83;100535.81;1771130;80;21135;-87
2022/05/29 05:04:48;;;;;;;4.45;2.05;;;;;;;14.03;69.61;100538.43;1714849;83;21746;-88
2022/05/29 05:07:22;;;;;;;3.40;2.17;;;;;;;14.02;69.63;100539.73;1714934;83;21055;-88
2022/05/29 05:09:48;;;;;;;7.20;2.40;;;;;;;14.03;69.60;100537.55;1701432;83;21070;-87
2022/05/29 05:12:17;;;;;;;5.40;2.10;;;;;;;13.98;69.46;100537.50;1734661;82;21114;-86
2022/05/29 05:14:46;;;;;;;7.30;2.77;;;;;;;13.83;69.40;100523.70;1727680;80;21118;-88
2022/05/29 05:17:13;;;;;;;4.65;2.05;;;;;;;13.87;69.32;100540.09;1722651;82;22557;-87
2022/05/29 05:19:40;;;;;;;5.58;1.70;;;;;;;13.83;69.35;100542.23;1740086;82;21090;-88
2022/05/29 05:22:08;;;;;;;5.22;2.05;;;;;;;13.78;69.33;100543.97;1777178;80;21042;-88
2022/05/29 05:24:37;;;;;;;5.60;2.17;;;;;;;13.74;69.40;100549.67;1749677;80;21403;-87
2022/05/29 05:27:06;;;;;;;5.20;1.90;;;;;;;13.69;69.38;100555.34;1771294;80;21045;-87
2022/05/29 05:29:33;;;;;;;3.08;1.85;;;;;;;13.65;69.37;100565.45;1770524;79;21740;-88
2022/05/29 05:31:59;;;;;;;7.70;2.10;;;;;;;13.60;69.40;100571.12;1776400;79;21535;-86
2022/05/29 05:34:27;;;;;;;3.90;2.00;;;;;;;13.54;69.42;100571.95;1788563;79;21047;-88
2022/05/29 05:36:55;;;;;;;4.15;2.42;;;;;;;13.48;69.39;100574.55;1761892;79;21597;-88
2022/05/29 05:39:22;;;;;;;4.53;2.10;;;;;;;13.40;69.46;100570.50;1777633;80;21011;-85
2022/05/29 05:41:49;;;;;;;5.92;2.35;;;;;;;13.39;69.63;100577.97;1768070;80;21744;-85
2022/05/29 05:44:15;;;;;;;6.22;1.92;;;;;;;13.37;69.57;100579.71;1761073;79;21006;-84
2022/05/29 05:46:47;;;;;;;4.85;2.15;;;;;;;13.39;69.77;100576.64;1769380;80;21169;-88
2022/05/29 05:49:17;;;;;;;3.98;2.12;;;;;;;13.48;69.87;100584.24;1777617;79;21516;-87
2022/05/29 05:51:44;;;;;;;6.35;2.50;;;;;;;13.52;69.76;100583.40;1772415;79;21022;-88
2022/05/29 05:54:17;;;;;;;7.75;2.52;;;;;;;13.57;69.74;100582.98;1784980;79;21893;-88
2022/05/29 05:56:47;;;;;;;3.92;2.52;;;;;;;13.59;69.73;100582.15;1793143;79;21068;-87
2022/05/29 05:59:14;;;;;;;3.85;2.17;;;;;;;13.68;69.79;100590.59;1796345;77;21019;-87
2022/05/29 06:01:44;;;;;;;5.72;2.50;;;;;;;13.79;69.71;100590.29;1822396;78;21082;-85
2022/05/29 06:04:11;;;;;;;7.53;2.52;;;;;;;13.90;69.70;100594.33;1800608;77;21027;-88
2022/05/29 06:06:38;;;;;;;3.25;1.85;;;;;;;14.02;69.54;100589.60;1795361;77;21774;-86
2022/05/29 06:09:05;;;;;;;4.53;2.20;;;;;;;14.14;69.49;100588.80;1805168;77;21233;-91
2022/05/29 06:11:33;;;;;;;6.03;2.20;;;;;;;14.23;69.37;100590.61;1809534;77;21085;-87
2022/05/29 06:14:21;;;;;;;4.42;2.42;;;;;;;14.35;69.32;100595.56;1825396;77;21492;-91
2022/05/29 06:16:49;;;;;;;5.22;2.02;;;;;;;14.51;69.13;100591.28;1817916;78;21078;-86
2022/05/29 06:19:16;;;;;;;5.50;2.20;;;;;;;14.68;68.95;100597.16;1802982;77;21756;-86
2022/05/29 06:21:42;;;;;;;4.08;2.25;;;;;;;14.79;68.73;100598.09;1814187;77;21039;-88
2022/05/29 06:24:10;;;;;;;3.80;1.92;;;;;;;14.92;68.44;100600.34;1796415;77;21015;-85
2022/05/29 06:26:36;;;;;;;6.53;2.05;;;;;;;15.07;68.47;100600.86;1800496;77;21573;-85
2022/05/29 06:29:04;;;;;;;4.53;2.15;;;;;;;15.32;68.54;100600.08;1795030;77;21070;-87
2022/05/29 06:31:31;;;;;;;2.92;2.10;;;;;;;15.62;68.30;100606.34;1797057;77;21780;-91
2022/05/29 06:33:58;;;;;;;6.60;2.33;;;;;;;15.86;68.00;100604.20;1805973;77;21539;-91
2022/05/29 06:36:40;;;;;;;4.03;2.08;;;;;;;16.14;67.53;100605.52;1808312;77;21078;-89
2022/05/29 06:39:07;;;;;;;5.70;2.77;;;;;;;16.34;67.07;100608.17;1792609;77;21090;-89
2022/05/29 06:41:34;;;;;;;4.05;2.20;;;;;;;16.54;66.50;100604.62;1814871;77;21038;-87
2022/05/29 06:44:01;;;;;;;7.45;2.50;;;;;;;16.70;66.41;100608.58;1796421;77;21852;-86
2022/05/29 06:46:28;;;;;;;5.22;2.58;;;;;;;16.95;66.05;100601.89;1792993;79;21077;-87
2022/05/29 06:49:02;;;;;;;7.65;2.65;;;;;;;17.21;65.70;100608.86;1806714;77;21018;-89
2022/05/29 06:51:29;;;;;;;7.53;5.22;;;;;;;17.32;64.70;100604.36;1792146;77;21161;-87
2022/05/29 06:53:59;;;;;;;5.10;2.42;;;;;;;17.27;63.85;100607.06;1792087;77;21022;-87
2022/05/29 06:56:29;;;;;;;7.35;2.40;;;;;;;17.15;63.39;100604.45;1775844;79;21439;-89
2022/05/29 06:58:56;;;;;;;5.15;3.02;;;;;;;17.15;63.32;100604.90;1781657;79;21602;-87
2022/05/29 07:07:07;;;;;;;5.75;2.52;;;;;;;17.36;62.78;100603.91;1668356;84;21105;-87
2022/05/29 07:09:37;;;;;;;4.25;2.05;;;;;;;17.32;62.35;100593.72;1745544;79;21766;-89
2022/05/29 07:12:08;;;;;;;4.45;2.00;;;;;;;17.39;62.14;100599.91;1784346;79;21633;-87
2022/05/29 07:14:43;;;;;;;5.58;2.20;;;;;;;17.55;62.10;100615.33;1745301;78;21075;-89
2022/05/29 07:17:11;;;;;;;4.60;1.95;;;;;;;17.65;61.68;100612.61;1762995;80;21099;-87
2022/05/29 07:19:38;;;;;;;5.80;1.95;;;;;;;17.75;61.32;100613.43;1783234;79;20988;-89
2022/05/29 07:22:20;;;;;;;5.70;2.00;;;;;;;17.93;61.43;100613.80;1791194;79;21601;-91
2022/05/29 07:24:49;;;;;;;3.47;1.82;;;;;;;18.12;61.34;100606.54;1781176;80;20988;-89
2022/05/29 07:27:22;;;;;;;4.53;1.82;;;;;;;18.37;60.81;100613.86;1787934;79;21049;-89
2022/05/29 07:29:49;;;;;;;5.12;2.12;;;;;;;18.59;60.33;100615.00;1789630;79;21134;-90
2022/05/29 07:32:23;;;;;;;4.97;2.10;;;;;;;18.80;59.89;100616.55;1779062;79;21584;-90
2022/05/29 07:34:59;;;;;;;5.30;2.22;;;;;;;18.96;59.38;100619.97;1800177;78;21807;-90
2022/05/29 07:37:45;;;;;;;;;;;;;;;;;;;;;
2022/05/29 07:40:32;;;;;;;5.55;2.40;;;;;;;19.03;58.76;100619.87;1758733;79;21054;-93
2022/05/29 07:45:44;;;;;;;3.40;2.00;;;;;;;19.32;58.06;100614.62;1752665;81;21059;-87
2022/05/29 07:48:11;;;;;;;6.22;1.90;;;;;;;19.53;57.90;100618.77;1740744;81;22572;-91
2022/05/29 07:50:38;;;;;;;6.05;2.35;;;;;;;19.66;57.14;100617.28;1768988;80;21081;-88
2022/05/29 07:53:04;;;;;;;5.50;3.08;;;;;;;19.75;56.75;100625.19;1787707;78;21058;-85
2022/05/29 07:55:32;;;;;;;4.60;2.30;;;;;;;19.72;56.29;100622.09;1774140;80;21074;-91
2022/05/29 07:58:21;;;;;;;6.42;2.42;;;;;;;19.73;56.37;100616.32;1797716;77;21077;-90
2022/05/29 08:00:44;;;;;;;6.80;2.02;;;;;;;19.93;56.21;100628.02;1782191;78;21544;-87
2022/05/29 08:03:13;;;;;;;3.92;2.00;;;;;;;20.02;55.92;100629.67;1797221;78;21050;-86
2022/05/29 08:05:41;;;;;;;2.87;1.60;;;;;;;19.96;55.50;100624.84;1799940;79;21040;-86
2022/05/29 08:08:10;;;;;;;5.53;2.15;;;;;;;19.85;55.06;100629.47;1796225;77;21349;-89
2022/05/29 08:10:38;;;;;;;3.55;1.90;;;;;;;19.74;54.82;100634.09;1802911;77;21093;-86
2022/05/29 08:13:06;;;;;;;4.15;1.80;;;;;;;19.70;54.66;100633.67;1768327;78;21657;-86
2022/05/29 08:15:34;;;;;;;3.80;1.90;;;;;;;19.62;53.95;100636.00;1791708;77;21030;-86
2022/05/29 08:18:01;;;;;;;5.10;2.05;;;;;;;19.50;54.01;100634.86;1790519;78;21559;-87
2022/05/29 08:20:36;;;;;;;7.85;2.12;;;;;;;19.51;54.03;100636.60;1805365;78;21139;-92
2022/05/29 08:23:11;;;;;;;4.70;1.90;;;;;;;19.67;54.19;100633.71;1802374;77;21058;-89
2022/05/29 08:31:09;;;;;;;5.30;1.60;;;;;;;20.05;53.42;100642.99;1803246;77;20988;-92
2022/05/29 08:33:36;;;;;;;6.28;3.08;;;;;;;20.02;52.97;100639.02;1801997;77;21589;-88
2022/05/29 08:36:10;;;;;;;3.67;1.95;;;;;;;20.09;52.96;100643.37;1799325;77;21008;-86
2022/05/29 08:38:40;;;;;;;4.65;1.75;;;;;;;20.28;52.97;100640.81;1798474;77;21731;-86
2022/05/29 08:41:13;;;;;;;4.72;1.80;;;;;;;20.41;52.63;100629.92;1755616;78;20986;-87
2022/05/29 08:44:12;;;;;;;6.05;1.90;;;;;;;20.60;52.46;100644.75;1772867;77;21362;-85
2022/05/29 08:46:52;;;;;;;8.08;1.95;;;;;;;20.74;52.32;100648.49;1795643;77;21003;-87
2022/05/29 08:49:17;;;;;;;5.75;2.37;;;;;;;20.85;52.11;100646.96;1794978;77;21503;-86
2022/05/29 08:52:25;;;;;;;4.45;2.12;;;;;;;20.94;52.03;100649.47;1801379;77;21720;-88
2022/05/29 08:55:06;;;;;;;8.10;2.90;;;;;;;20.87;51.55;100647.37;1797362;78;21338;-86
2022/05/29 08:58:21;;;;;;;5.03;2.33;;;;;;;20.73;51.34;100651.63;1796101;78;20988;-85
2022/05/29 09:00:59;;;;;;;4.67;1.98;;;;;;;20.73;51.34;100651.63;1793603;78;28188;-89
2022/05/29 09:03:49;;;;;;;4.20;1.82;;;;;;;20.81;50.84;100657.30;1792617;78;20983;-87
2022/05/29 09:06:36;;;;;;;2.30;1.50;;;;;;;20.87;50.70;100661.19;1792664;78;21736;-85
2022/05/29 09:09:36;;;;;;;5.50;1.60;;;;;;;20.90;50.41;100651.31;1792394;78;21029;-85
2022/05/29 09:12:10;;;;;;;4.83;1.60;;;;;;;20.93;49.02;100627.19;1793210;77;21030;-84
2022/05/29 09:14:59;;;;;;;2.98;1.70;;;;;;;20.93;49.02;100627.19;1780442;77;21023;-86
2022/05/29 09:17:53;;;;;;;2.72;1.75;;;;;;;20.92;48.96;100666.88;1796726;78;21300;-86
2022/05/29 09:20:37;;;;;;;5.17;2.05;;;;;;;20.78;48.64;100667.61;1796610;77;22528;-86
2022/05/29 09:23:07;;;;;;;4.28;1.52;;;;;;;20.66;48.57;100670.03;1795522;78;20984;-86
2022/05/29 09:25:42;;;;;;;2.92;1.90;;;;;;;20.73;48.81;100662.33;1796753;78;21122;-86
2022/05/29 09:28:17;;;;;;;7.85;3.08;;;;;;;20.85;48.51;100665.69;1794241;78;20992;-87
2022/05/29 09:30:44;;;;;;;5.42;1.85;;;;;;;20.91;48.15;100666.47;1796101;77;21020;-88
2022/05/29 09:33:31;;;;;;;4.50;2.00;;;;;;;20.32;48.15;100649.20;1796209;77;21747;-87
2022/05/29 09:36:23;;;;;;;;;;;;;;;20.32;48.15;100649.20;1794587;78;21489;-87
2022/05/29 09:39:10;;;;;;;4.45;2.72;;;;;;;20.34;47.79;100655.40;1795317;78;20729;-86
2022/05/29 09:41:44;;;;;;;8.50;2.47;;;;;;;20.31;47.61;100658.58;1807357;78;21034;-89
2022/05/29 09:44:15;;;;;;;3.40;1.70;;;;;;;20.16;47.47;100663.75;1799795;78;21551;-87
2022/05/29 09:46:46;;;;;;;3.77;1.40;;;;;;;20.17;47.51;100662.36;1792124;77;21756;-87
2022/05/29 09:49:41;;;;;;;2.90;1.30;;;;;;;20.22;47.28;100669.45;1815401;77;20998;-87
2022/05/29 09:52:18;;;;;;;3.17;1.50;;;;;;;20.27;47.03;100657.77;1796489;77;21071;-87
2022/05/29 09:54:49;;;;;;;2.80;1.35;;;;;;;20.37;47.27;100659.83;1780836;80;21558;-89
2022/05/29 09:57:29;;;;;;;4.33;1.85;;;;;;;20.71;47.41;100661.48;1798070;77;21081;-88
2022/05/29 10:00:08;;;;;;;3.52;1.47;;;;;;;21.04;46.97;100662.20;1839197;77;21953;-87
2022/05/29 10:02:39;;;;;;;5.50;1.90;;;;;;;21.41;46.97;100658.78;1793807;77;21034;-88
2022/05/29 10:05:09;;;;;;;3.67;1.55;;;;;;;21.71;46.65;100663.48;1798131;77;21293;-88
2022/05/29 10:07:42;;;;;;;4.65;1.60;;;;;;;21.88;46.62;100638.98;1810416;77;21043;-88
2022/05/29 10:10:12;;;;;;;3.70;1.72;;;;;;;22.16;46.75;100660.25;1799737;77;21446;-87
2022/05/29 10:12:47;;;;;;;5.03;2.20;;;;;;;22.18;46.02;100661.08;1800353;77;21851;-90
2022/05/29 10:15:42;;;;;;;2.67;1.45;;;;;;;22.08;45.96;100669.34;1787394;79;21552;-89
2022/05/29 10:18:35;;;;;;;3.65;1.55;;;;;;;21.97;45.51;100665.17;1811863;78;21003;-88
2022/05/29 10:21:20;;;;;;;5.12;1.85;;;;;;;21.78;44.95;100668.73;1805351;79;21128;-90
2022/05/29 10:23:53;;;;;;;4.67;1.87;;;;;;;21.66;45.41;100680.15;1783441;79;21082;-89
2022/05/29 10:26:35;;;;;;;3.05;1.50;;;;;;;21.51;44.46;100688.05;1801899;79;21746;-88
2022/05/29 10:29:33;;;;;;;4.53;1.37;;;;;;;21.25;44.08;100693.04;1785148;79;21092;-89
2022/05/29 10:32:03;;;;;;;2.02;1.20;;;;;;;21.01;44.30;100681.02;1792462;79;21047;-90
2022/05/29 10:34:40;;;;;;;3.08;1.30;;;;;;;20.96;44.73;100685.97;1793347;79;21487;-90
2022/05/29 10:37:41;;;;;;;3.45;1.80;;;;;;;20.96;45.27;100689.11;1800431;79;21050;-87
2022/05/29 10:40:25;;;;;;;5.55;1.67;;;;;;;20.82;45.48;100688.05;1786626;79;21795;-86
2022/05/29 10:42:57;;;;;;;2.05;1.47;;;;;;;20.58;45.99;100691.53;1796676;78;21070;-88
2022/05/29 10:45:42;;;;;;;4.90;2.05;;;;;;;20.43;46.50;100694.47;1802324;78;21035;-92
2022/05/29 10:48:23;;;;;;;3.85;1.80;;;;;;;20.42;46.99;100688.72;1801416;79;21293;-86
2022/05/29 10:51:25;;;;;;;3.10;1.67;;;;;;;20.62;47.45;100696.41;1796100;79;21364;-88
2022/05/29 10:54:12;;;;;;;4.90;1.98;;;;;;;20.62;47.45;100696.41;1786923;79;21910;-87
2022/05/29 10:57:13;;;;;;;5.20;1.90;;;;;;;20.79;47.60;100697.45;1792057;77;21073;-87
2022/05/29 11:00:17;;;;;;;2.60;1.60;;;;;;;20.89;47.50;100696.39;1787374;79;22196;-90
2022/05/29 11:03:21;;;;;;;;;;;;;;;20.92;46.41;100699.45;1729359;81;21260;-86
2022/05/29 11:06:26;;;;;;;5.87;2.20;;;;;;;20.75;45.73;100693.95;1757159;80;20209;-90
2022/05/29 11:09:42;;;;;;;1.67;1.05;;;;;;;20.72;45.67;100687.33;1759191;80;22103;-88
2022/05/29 11:12:26;;;;;;;1.87;0.90;;;;;;;20.90;45.90;100689.23;1786918;79;21043;-90
2022/05/29 11:15:01;;;;;;;2.50;1.02;;;;;;;21.15;45.67;100690.55;1794477;79;21081;-88
2022/05/29 11:18:10;;;;;;;3.05;1.12;;;;;;;21.21;44.89;100659.19;1798953;79;21331;-90
2022/05/29 11:21:14;;;;;;;1.02;0.80;;;;;;;21.46;44.49;100683.25;1792993;79;21065;-91
2022/05/29 11:23:51;;;;;;;2.37;0.90;;;;;;;21.55;43.92;100687.53;1784328;79;21784;-89
2022/05/29 11:26:46;;;;;;;1.87;0.95;;;;;;;21.50;42.70;100697.45;1799227;78;21055;-87
2022/05/29 11:29:40;;;;;;;2.25;1.05;;;;;;;21.50;42.70;100697.45;1794009;79;21094;-89
2022/05/29 11:32:43;;;;;;;1.92;1.02;;;;;;;21.32;42.20;100695.98;1789081;79;21550;-86
2022/05/29 11:35:18;;;;;;;1.00;0.90;;;;;;;21.06;41.96;100676.00;1788869;79;21075;-92
2022/05/29 11:38:14;;;;;;;1.72;0.90;;;;;;;21.02;41.86;100693.03;1781763;78;21805;-87
2022/05/29 11:40:49;;;;;;;4.70;3.70;;;;;;;21.10;41.75;100695.09;1807745;79;21129;-86
2022/05/29 11:43:26;;;;;;;3.50;2.27;;;;;;;21.14;41.71;100692.77;1790411;79;21327;-88
2022/05/29 11:52:27;;;;;;;2.22;1.25;;;;;;;21.25;41.28;100686.34;1799935;78;21949;-86
2022/05/29 11:55:17;;;;;;;4.25;2.30;;;;;;;21.19;41.24;100673.97;1786727;77;21544;-87
2022/05/29 11:58:06;;;;;;;2.27;1.05;;;;;;;20.92;41.10;100664.20;1764319;80;21086;-87
2022/05/29 12:00:41;;;;;;;3.12;1.60;;;;;;;20.76;40.74;100678.34;1763700;80;21061;-87
2022/05/29 12:03:28;;;;;;;4.25;2.55;;;;;;;20.88;42.89;100677.22;1765064;80;21516;-90
2022/05/29 12:06:33;;;;;;;5.58;2.67;;;;;;;20.88;42.89;100677.22;1762849;80;21791;-88
2022/05/29 12:09:05;;;;;;;3.52;1.77;;;;;;;21.20;43.43;100701.14;1790341;79;21051;-88
2022/05/29 12:11:43;;;;;;;3.52;1.98;;;;;;;21.01;43.21;100681.02;1764447;80;21050;-88
2022/05/29 12:14:44;;;;;;;4.55;2.00;;;;;;;20.85;43.11;100701.80;1763768;79;21609;-89
2022/05/29 12:17:37;;;;;;;4.03;1.72;;;;;;;20.50;43.35;100704.16;1765393;80;21572;-88
2022/05/29 12:20:12;;;;;;;4.33;1.80;;;;;;;20.24;43.78;100699.70;1771255;80;22457;-94
2022/05/29 12:22:56;;;;;;;5.60;1.80;;;;;;;20.02;43.96;100704.48;1769285;80;21564;-88
2022/05/29 12:25:36;;;;;;;;;;;;;;;19.74;44.28;100709.74;1767333;80;21055;-88
2022/05/29 12:28:20;;;;;;;5.53;1.80;;;;;;;19.51;44.63;100707.81;1760033;80;20505;-87
2022/05/29 12:30:50;;;;;;;4.87;1.70;;;;;;;19.27;44.92;100713.86;1749065;80;21020;-90
2022/05/29 12:33:18;;;;;;;2.45;1.42;;;;;;;19.02;45.12;100715.92;1762030;80;21775;-86
2022/05/29 12:36:12;;;;;;;4.50;1.75;;;;;;;18.78;45.34;100717.88;1753308;80;21063;-86
2022/05/29 12:39:03;;;;;;;2.67;1.60;;;;;;;18.62;45.94;100720.28;1781977;80;27210;-89